Time;durP1;ratioP1;P1;durP2;ratioP2;P2;SDS_P1;SDS_P2;PMS_P1;PMS_P2;Temp;Humidity;BMP_temperature;BMP_pressure;BME280_temperature;BME280_humidity;BME280_pressure;Samples;Min_cycle;Max_cycle;Signal;HPM_P1;HPM_P2
2022/09/28 00:00:41;;;;;;;9.77;8.77;;;;;;;7.96;95.75;99497.69;4990807;28;20033;-47
2022/09/28 00:03:09;;;;;;;11.80;8.60;;;;;;;7.85;94.75;99481.78;4989788;28;20037;-48
2022/09/28 00:05:35;;;;;;;9.95;8.88;;;;;;;7.93;95.42;99495.28;4956262;28;20282;-46
2022/09/28 00:08:00;;;;;;;10.45;8.57;;;;;;;7.96;95.78;99487.09;4989535;28;20055;-47
2022/09/28 00:10:28;;;;;;;11.13;9.27;;;;;;;7.98;96.18;99497.59;4971973;28;20034;-47
2022/09/28 00:12:54;;;;;;;11.95;8.90;;;;;;;7.99;95.95;99504.56;4961073;28;20521;-47
2022/09/28 00:15:20;;;;;;;9.52;8.52;;;;;;;8.01;96.19;99501.81;4969723;28;20065;-48
2022/09/28 00:17:46;;;;;;;12.48;9.63;;;;;;;7.98;96.45;99492.31;4981833;28;20022;-47
2022/09/28 00:20:12;;;;;;;11.65;9.25;;;;;;;8.01;96.28;99497.38;5004455;28;20556;-47
2022/09/28 00:22:41;;;;;;;10.40;8.82;;;;;;;7.99;95.96;99487.84;4958087;28;20100;-47
2022/09/28 00:25:08;;;;;;;10.25;8.80;;;;;;;7.96;95.65;99489.75;4971837;28;20426;-48
2022/09/28 00:27:34;;;;;;;14.70;10.43;;;;;;;7.96;96.07;99486.28;4988434;28;20113;-48
2022/09/28 00:29:59;;;;;;;10.93;9.45;;;;;;;7.97;96.07;99483.53;4985473;28;20117;-47
2022/09/28 00:32:25;;;;;;;10.30;9.38;;;;;;;8.01;96.82;99483.28;5006736;28;20033;-46
2022/09/28 00:34:51;;;;;;;9.77;8.85;;;;;;;7.96;96.10;99478.31;4996323;28;20485;-47
2022/09/28 00:37:18;;;;;;;11.98;9.75;;;;;;;7.91;96.13;99477.81;4973515;28;20039;-47
2022/09/28 00:39:44;;;;;;;10.68;9.27;;;;;;;7.96;96.55;99473.03;4996788;28;20033;-48
2022/09/28 00:42:19;;;;;;;12.43;9.95;;;;;;;8.03;96.44;99474.28;4991576;28;20491;-47
2022/09/28 00:44:58;;;;;;;13.73;10.38;;;;;;;7.99;96.74;99461.38;4975109;28;20497;-50
2022/09/28 00:47:41;;;;;;;11.25;9.73;;;;;;;8.02;96.02;99461.97;4975885;28;20029;-48
2022/09/28 00:50:23;;;;;;;12.82;10.00;;;;;;;8.05;96.63;99460.91;4974734;28;20022;-48
2022/09/28 00:52:56;;;;;;;11.30;10.25;;;;;;;7.96;95.81;99447.41;4991481;28;20034;-49
2022/09/28 00:55:40;;;;;;;13.68;10.48;;;;;;;7.96;95.52;99460.63;4984754;28;20034;-48
2022/09/28 00:58:13;;;;;;;11.10;10.00;;;;;;;8.04;95.96;99454.78;5003322;28;20052;-48
2022/09/28 01:00:41;;;;;;;11.25;9.98;;;;;;;8.01;95.09;99452.38;4990588;28;20095;-49
2022/09/28 01:03:08;;;;;;;13.18;10.45;;;;;;;8.06;95.45;99452.00;4981307;28;20042;-47
2022/09/28 01:05:35;;;;;;;13.40;10.05;;;;;;;8.03;95.22;99452.22;4974199;28;20299;-47
2022/09/28 01:08:01;;;;;;;10.68;9.57;;;;;;;8.07;95.15;99443.13;4991081;28;20054;-47
2022/09/28 01:10:29;;;;;;;12.63;9.70;;;;;;;8.11;96.16;99444.56;4988920;28;20041;-50
2022/09/28 01:12:56;;;;;;;12.25;10.65;;;;;;;8.05;95.47;99443.22;4966459;28;20050;-48
2022/09/28 01:15:25;;;;;;;13.48;10.55;;;;;;;8.05;95.79;99450.31;4977199;28;20034;-48
2022/09/28 01:18:26;;;;;;;11.50;10.38;;;;;;;8.06;95.82;99455.53;4987843;28;20130;-46
2022/09/28 01:21:17;;;;;;;13.88;11.55;;;;;;;8.13;96.18;99450.59;4970011;28;20038;-47
2022/09/28 01:24:09;;;;;;;15.82;12.15;;;;;;;8.08;95.85;99456.22;4991355;28;20053;-46
2022/09/28 01:26:37;;;;;;;13.35;10.95;;;;;;;8.11;96.12;99457.81;4959848;28;20042;-46
2022/09/28 01:29:25;;;;;;;18.48;11.48;;;;;;;8.14;96.50;99460.22;4989871;28;20038;-46
2022/09/28 01:32:00;;;;;;;14.70;11.75;;;;;;;8.11;96.34;99463.94;4991184;28;20109;-48
2022/09/28 01:34:34;;;;;;;14.27;12.30;;;;;;;8.12;95.94;99463.00;4978355;28;20038;-47
2022/09/28 01:37:07;;;;;;;13.63;12.15;;;;;;;8.10;96.87;99458.78;4969765;28;20113;-47
2022/09/28 01:39:38;;;;;;;16.98;12.73;;;;;;;8.08;96.46;99450.94;4999339;28;20374;-46
2022/09/28 01:42:12;;;;;;;14.23;12.60;;;;;;;8.10;96.98;99459.63;4972814;28;20526;-46
2022/09/28 01:44:43;;;;;;;19.77;13.93;;;;;;;8.07;96.62;99459.00;4977581;28;20096;-48
2022/09/28 01:47:11;;;;;;;15.48;13.57;;;;;;;8.12;96.80;99456.88;4971032;28;20099;-49
2022/09/28 01:49:45;;;;;;;15.43;13.88;;;;;;;8.11;97.04;99468.41;4957434;28;20031;-47
2022/09/28 01:52:34;;;;;;;18.75;14.55;;;;;;;8.13;97.41;99469.13;4984901;28;20038;-47
2022/09/28 01:55:24;;;;;;;16.30;14.60;;;;;;;8.14;97.33;99465.50;4986545;28;20022;-46
2022/09/28 01:58:02;;;;;;;;;;;;;;;8.24;96.68;99460.38;4991820;28;20028;-47
2022/09/28 02:00:28;;;;;;;18.33;15.82;;;;;;;8.16;97.15;99464.44;4996145;28;19918;-46
2022/09/28 02:03:09;;;;;;;16.92;15.13;;;;;;;8.10;97.20;99456.13;4953658;28;20061;-47
2022/09/28 02:05:38;;;;;;;17.80;15.93;;;;;;;8.13;97.85;99461.19;4978605;28;20034;-46
2022/09/28 02:08:18;;;;;;;23.00;15.00;;;;;;;8.11;97.35;99457.81;4958178;28;20069;-46
2022/09/28 02:10:56;;;;;;;16.45;14.73;;;;;;;8.11;97.79;99458.63;4990047;28;20037;-48
2022/09/28 02:13:45;;;;;;;19.90;15.23;;;;;;;8.14;97.85;99454.91;4990504;28;20028;-48
2022/09/28 02:16:33;;;;;;;17.67;14.50;;;;;;;8.16;98.09;99461.78;4990297;28;20037;-46
2022/09/28 02:19:01;;;;;;;17.50;14.45;;;;;;;8.14;97.72;99465.50;4990991;28;20026;-46
2022/09/28 02:21:38;;;;;;;16.75;13.77;;;;;;;8.16;97.79;99451.19;4972164;28;20026;-46
2022/09/28 02:24:17;;;;;;;17.27;13.57;;;;;;;8.16;97.66;99460.97;4972688;28;20038;-48
2022/09/28 02:26:47;;;;;;;16.00;13.02;;;;;;;8.05;96.79;99461.75;4990458;28;20030;-48
2022/09/28 02:29:12;;;;;;;;;;;;;;;8.11;96.71;99460.44;4992992;28;20391;-46
2022/09/28 02:31:38;;;;;;;16.63;12.07;;;;;;;8.01;96.58;99456.81;5004814;28;19921;-47
2022/09/28 02:34:04;;;;;;;14.77;10.82;;;;;;;7.89;96.43;99454.13;5005830;28;20271;-48
2022/09/28 02:36:32;;;;;;;13.30;10.13;;;;;;;7.92;96.32;99459.19;4990331;28;20030;-49
2022/09/28 02:39:01;;;;;;;11.77;10.30;;;;;;;7.84;96.02;99464.19;4990531;28;20481;-46
2022/09/28 02:41:29;;;;;;;12.30;10.73;;;;;;;7.78;96.38;99458.53;4972850;28;20030;-46
2022/09/28 02:44:29;;;;;;;11.25;10.05;;;;;;;7.84;96.86;99458.91;4973261;28;20592;-48
2022/09/28 02:47:04;;;;;;;15.35;10.77;;;;;;;7.77;96.75;99460.34;4985452;28;20034;-48
2022/09/28 02:49:40;;;;;;;11.10;9.95;;;;;;;7.76;97.04;99457.78;4991550;28;20058;-47
2022/09/28 02:52:24;;;;;;;14.55;9.93;;;;;;;7.74;97.38;99463.22;4980971;28;20030;-47
2022/09/28 02:55:17;;;;;;;11.82;9.57;;;;;;;7.71;96.75;99469.56;4989863;28;20026;-47
2022/09/28 02:58:08;;;;;;;12.90;9.18;;;;;;;7.79;96.89;99471.63;4988791;28;20083;-47
2022/09/28 03:00:43;;;;;;;12.23;9.15;;;;;;;7.76;96.51;99473.66;4956823;28;20031;-49
2022/09/28 03:03:16;;;;;;;10.60;8.30;;;;;;;7.76;96.26;99473.66;4983763;28;20027;-48
2022/09/28 03:06:10;;;;;;;10.38;9.13;;;;;;;7.82;96.77;99476.69;4979284;28;20033;-48
2022/09/28 03:08:44;;;;;;;11.13;8.57;;;;;;;7.76;96.01;99471.84;4971886;28;20184;-47
2022/09/28 03:11:19;;;;;;;12.73;8.07;;;;;;;7.67;95.74;99469.88;4989488;28;20030;-47
2022/09/28 03:13:45;;;;;;;11.63;8.35;;;;;;;7.77;96.41;99473.56;4990484;28;20038;-48
2022/09/28 03:16:10;;;;;;;10.10;8.00;;;;;;;7.71;96.16;99474.84;4989344;28;20033;-48
2022/09/28 03:18:36;;;;;;;10.57;7.68;;;;;;;7.75;96.42;99472.81;4987916;28;20397;-47
2022/09/28 03:21:03;;;;;;;8.02;7.13;;;;;;;7.73;96.40;99475.59;4987869;28;20019;-49
2022/09/28 03:23:28;;;;;;;10.05;7.00;;;;;;;7.73;96.11;99474.72;4988964;28;20022;-46
2022/09/28 03:25:54;;;;;;;10.63;7.90;;;;;;;7.72;96.40;99467.75;4989573;28;20026;-48
2022/09/28 03:28:23;;;;;;;10.25;6.55;;;;;;;7.76;96.48;99468.38;4976638;28;20042;-51
2022/09/28 03:30:48;;;;;;;9.77;7.15;;;;;;;7.74;96.13;99461.41;4988445;28;20038;-47
2022/09/28 03:33:14;;;;;;;8.30;7.15;;;;;;;7.73;97.01;99454.44;4972727;28;20030;-47
2022/09/28 03:35:40;;;;;;;9.65;6.43;;;;;;;7.79;96.33;99461.03;4987856;28;20504;-48
2022/09/28 03:38:06;;;;;;;7.85;6.20;;;;;;;7.80;96.36;99461.91;4994972;28;20030;-47
2022/09/28 03:40:31;;;;;;;8.90;6.63;;;;;;;7.77;96.32;99464.78;4988866;28;20034;-48
2022/09/28 03:42:58;;;;;;;6.93;5.72;;;;;;;7.77;96.27;99478.03;4971676;28;20046;-48
2022/09/28 03:45:24;;;;;;;8.98;6.30;;;;;;;7.76;96.31;99473.66;4988159;28;20045;-47
2022/09/28 03:47:49;;;;;;;9.75;6.10;;;;;;;7.73;96.33;99466.78;4988501;28;20038;-46
2022/09/28 03:50:15;;;;;;;9.23;6.35;;;;;;;7.79;96.59;99479.56;4987766;28;20026;-47
2022/09/28 03:52:40;;;;;;;8.32;6.13;;;;;;;7.78;96.15;99477.06;4998375;28;20133;-48
2022/09/28 03:55:09;;;;;;;7.75;5.93;;;;;;;7.71;96.40;99474.84;4989901;28;20030;-47
2022/09/28 03:57:35;;;;;;;6.20;5.60;;;;;;;7.73;96.68;99475.59;4981483;28;20125;-49
2022/09/28 04:00:02;;;;;;;6.88;6.07;;;;;;;7.67;96.40;99470.72;4972075;28;20113;-49
2022/09/28 04:02:29;;;;;;;6.35;5.63;;;;;;;7.70;96.97;99480.25;4989652;28;20054;-48
2022/09/28 04:04:55;;;;;;;7.15;5.55;;;;;;;7.65;96.30;99474.47;4970718;28;20071;-46
2022/09/28 04:07:20;;;;;;;9.13;5.68;;;;;;;7.65;96.64;99472.66;4977425;28;20034;-46
2022/09/28 04:09:46;;;;;;;7.68;5.78;;;;;;;7.67;96.99;99473.38;4970664;28;20095;-48
2022/09/28 04:12:11;;;;;;;7.82;5.05;;;;;;;7.66;96.43;99474.34;4988759;28;20038;-50
2022/09/28 04:14:36;;;;;;;6.18;4.63;;;;;;;7.68;96.67;99477.72;4969667;28;20091;-49
2022/09/28 04:17:02;;;;;;;6.47;4.80;;;;;;;7.70;96.69;99482.88;4988973;28;20121;-49
2022/09/28 04:19:27;;;;;;;5.18;4.50;;;;;;;7.70;97.09;99477.59;4987739;28;20566;-48
2022/09/28 04:21:53;;;;;;;6.72;4.10;;;;;;;7.70;96.14;99475.78;4975339;28;20033;-49
2022/09/28 04:24:19;;;;;;;6.07;4.30;;;;;;;7.69;96.96;99481.22;4993974;28;20066;-48
2022/09/28 04:26:44;;;;;;;5.82;4.20;;;;;;;7.68;97.26;99477.72;4990669;28;20033;-48
2022/09/28 04:29:16;;;;;;;5.82;3.55;;;;;;;7.66;96.85;99469.03;4992295;28;20034;-47
2022/09/28 04:31:46;;;;;;;7.95;3.72;;;;;;;7.71;97.37;99472.22;4989339;28;20038;-47
2022/09/28 04:34:16;;;;;;;4.47;3.65;;;;;;;7.65;96.60;99471.81;4988704;28;20030;-48
2022/09/28 04:36:42;;;;;;;8.85;3.90;;;;;;;7.66;97.16;99473.50;4995759;28;20026;-48
2022/09/28 04:39:08;;;;;;;4.03;3.30;;;;;;;7.63;97.27;99466.63;5008150;28;20041;-47
2022/09/28 04:41:35;;;;;;;5.35;3.85;;;;;;;7.63;96.90;99469.28;4972389;28;20042;-48
2022/09/28 04:44:02;;;;;;;6.57;3.65;;;;;;;7.57;97.29;99459.13;4972380;28;20054;-47
2022/09/28 04:46:27;;;;;;;7.65;3.63;;;;;;;7.64;96.53;99467.47;4971676;28;20081;-46
2022/09/28 04:48:52;;;;;;;3.80;3.38;;;;;;;7.62;96.48;99474.69;4988187;28;20064;-46
2022/09/28 04:51:18;;;;;;;3.95;3.53;;;;;;;7.62;96.93;99474.69;4985872;28;20046;-47
2022/09/28 04:53:44;;;;;;;3.40;3.20;;;;;;;7.61;96.73;99471.19;5008593;28;20037;-47
2022/09/28 04:56:15;;;;;;;5.50;3.53;;;;;;;7.60;96.99;99476.59;4990904;28;20026;-46
2022/09/28 04:58:41;;;;;;;5.07;4.00;;;;;;;7.54;96.71;99475.25;5008627;28;20030;-47
2022/09/28 05:01:13;;;;;;;6.57;3.90;;;;;;;7.49;96.90;99483.50;5006050;28;20034;-46
2022/09/28 05:03:39;;;;;;;5.47;3.78;;;;;;;7.51;96.68;99483.41;5007861;28;20120;-49
2022/09/28 05:06:05;;;;;;;7.65;3.88;;;;;;;7.47;97.05;99488.06;5008755;28;20423;-47
2022/09/28 05:08:34;;;;;;;6.18;3.70;;;;;;;7.45;96.40;99492.63;4990803;28;20058;-48
2022/09/28 05:11:04;;;;;;;6.20;4.25;;;;;;;7.40;96.68;99480.69;5002921;28;20026;-46
2022/09/28 05:13:31;;;;;;;5.88;4.10;;;;;;;7.43;97.22;99489.22;4988818;28;20038;-46
2022/09/28 05:15:57;;;;;;;5.00;4.13;;;;;;;7.38;96.88;99488.75;4988733;28;20053;-47
2022/09/28 05:18:23;;;;;;;4.90;3.95;;;;;;;7.40;97.05;99497.38;4987502;28;20101;-47
2022/09/28 05:20:49;;;;;;;6.75;4.07;;;;;;;7.38;96.80;99485.22;4992404;28;20103;-48
2022/09/28 05:23:15;;;;;;;8.18;5.10;;;;;;;7.42;97.44;99492.84;4974562;28;20034;-49
2022/09/28 05:25:41;;;;;;;5.00;4.50;;;;;;;7.40;97.59;99494.75;4992236;28;20393;-48
2022/09/28 05:28:07;;;;;;;6.32;4.80;;;;;;;7.42;97.48;99497.28;4992024;28;20381;-49
2022/09/28 05:30:34;;;;;;;6.28;4.40;;;;;;;7.35;96.74;99499.50;4979149;28;20034;-48
2022/09/28 05:33:02;;;;;;;10.40;5.20;;;;;;;7.38;97.22;99506.38;4992951;28;20026;-46
2022/09/28 05:35:29;;;;;;;6.65;5.50;;;;;;;7.36;97.09;99495.94;4998553;28;20030;-48
2022/09/28 05:37:55;;;;;;;6.00;5.40;;;;;;;7.33;97.03;99495.31;4990176;28;20492;-46
2022/09/28 05:40:25;;;;;;;6.65;5.57;;;;;;;7.35;97.24;99494.22;4977276;28;20036;-46
2022/09/28 05:42:53;;;;;;;9.93;5.75;;;;;;;7.39;97.57;99486.94;4958595;28;20477;-46
2022/09/28 05:45:18;;;;;;;6.22;5.63;;;;;;;7.36;96.83;99482.72;4990194;28;20065;-48
2022/09/28 05:47:46;;;;;;;7.80;5.97;;;;;;;7.36;96.73;99482.72;4990218;28;20058;-48
2022/09/28 05:50:15;;;;;;;6.80;6.15;;;;;;;7.37;96.71;99488.84;4988623;28;20034;-49
2022/09/28 05:52:40;;;;;;;6.85;6.22;;;;;;;7.43;96.82;99496.31;4991834;28;20031;-49
2022/09/28 05:55:07;;;;;;;9.45;6.78;;;;;;;7.39;96.41;99494.88;4990315;28;20187;-49
2022/09/28 05:57:32;;;;;;;8.93;6.95;;;;;;;7.46;97.15;99494.31;4970254;28;20116;-47
2022/09/28 05:59:58;;;;;;;8.93;6.72;;;;;;;7.37;96.25;99502.91;4984257;28;20964;-47
2022/09/28 06:02:23;;;;;;;8.00;6.60;;;;;;;7.37;96.70;99508.19;4992022;28;20038;-47
2022/09/28 06:04:50;;;;;;;8.43;7.30;;;;;;;7.39;97.00;99502.81;4992593;28;20400;-47
2022/09/28 06:07:16;;;;;;;7.97;7.25;;;;;;;7.41;97.19;99503.50;4985032;28;20031;-48
2022/09/28 06:09:42;;;;;;;12.30;7.03;;;;;;;7.40;96.76;99504.47;4971373;28;20408;-49
2022/09/28 06:12:08;;;;;;;8.13;7.32;;;;;;;7.36;96.65;99503.03;4973375;28;20038;-46
2022/09/28 06:14:37;;;;;;;8.13;7.32;;;;;;;7.38;96.87;99512.53;4992264;28;20115;-47
2022/09/28 06:17:03;;;;;;;11.55;7.28;;;;;;;7.37;96.65;99510.00;4972719;28;20067;-47
2022/09/28 06:19:28;;;;;;;12.43;7.80;;;;;;;7.36;96.23;99513.59;4975555;28;20113;-46
2022/09/28 06:21:56;;;;;;;11.60;7.85;;;;;;;7.37;96.10;99515.28;4998673;28;20064;-48
2022/09/28 06:24:21;;;;;;;11.35;7.93;;;;;;;7.34;96.35;99515.50;5010304;28;20037;-48
2022/09/28 06:26:46;;;;;;;8.18;7.28;;;;;;;7.30;96.43;99516.69;4980181;28;20467;-47
2022/09/28 06:29:17;;;;;;;10.60;8.85;;;;;;;7.27;96.25;99515.09;4973281;28;20061;-48
2022/09/28 06:31:44;;;;;;;9.90;8.93;;;;;;;7.28;96.37;99520.28;4992459;28;20030;-46
2022/09/28 06:34:11;;;;;;;11.77;9.77;;;;;;;7.26;96.45;99522.19;4990436;28;20022;-47
2022/09/28 06:36:37;;;;;;;11.15;9.65;;;;;;;7.26;96.75;99513.38;4991012;28;20365;-46
2022/09/28 06:39:05;;;;;;;12.13;9.57;;;;;;;7.31;96.70;99513.06;4989673;28;20473;-47
2022/09/28 06:41:31;;;;;;;18.67;10.85;;;;;;;7.29;96.82;99529.03;4990840;28;20105;-47
2022/09/28 06:43:57;;;;;;;13.00;11.15;;;;;;;7.37;97.63;99536.44;4975155;28;20031;-47
2022/09/28 06:46:23;;;;;;;14.27;10.68;;;;;;;7.38;97.45;99536.34;4972668;28;20033;-47
2022/09/28 06:48:48;;;;;;;14.80;10.82;;;;;;;7.41;97.53;99537.91;4988419;28;20493;-47
2022/09/28 06:51:17;;;;;;;12.77;11.15;;;;;;;7.45;98.12;99534.09;4975245;28;20389;-49
2022/09/28 06:53:42;;;;;;;13.43;10.80;;;;;;;7.48;98.22;99541.81;4978407;28;20067;-47
2022/09/28 06:56:09;;;;;;;11.68;10.18;;;;;;;7.44;98.19;99529.75;4990106;28;20038;-47
2022/09/28 06:58:35;;;;;;;14.38;11.85;;;;;;;7.51;98.50;99541.59;4990772;28;20030;-47
2022/09/28 07:01:01;;;;;;;15.82;11.82;;;;;;;7.55;98.50;99537.78;4989912;28;20021;-47
2022/09/28 07:03:27;;;;;;;12.35;11.05;;;;;;;7.57;98.58;99538.50;4989199;28;20026;-47
2022/09/28 07:05:54;;;;;;;15.10;10.93;;;;;;;7.61;99.11;99541.78;4982502;28;20022;-47
2022/09/28 07:08:23;;;;;;;13.30;11.25;;;;;;;7.73;99.56;99554.13;4985771;28;20046;-47
2022/09/28 07:10:54;;;;;;;14.45;11.23;;;;;;;7.83;99.14;99552.50;4982136;28;20023;-47
2022/09/28 07:13:21;;;;;;;14.93;10.95;;;;;;;7.86;99.85;99554.94;4980481;28;20035;-46
2022/09/28 07:15:47;;;;;;;13.75;10.38;;;;;;;7.93;99.90;99552.69;4990408;28;20038;-47
2022/09/28 07:18:13;;;;;;;12.68;10.63;;;;;;;8.01;99.71;99552.13;4990249;28;20053;-47
2022/09/28 07:20:38;;;;;;;13.95;10.10;;;;;;;8.06;99.25;99549.97;4989931;28;20030;-48
2022/09/28 07:23:07;;;;;;;12.20;9.98;;;;;;;8.17;99.67;99545.56;4989059;28;20039;-45
2022/09/28 07:25:34;;;;;;;12.60;9.80;;;;;;;8.28;99.29;99554.53;5005104;28;20022;-47
2022/09/28 07:28:00;;;;;;;11.60;9.88;;;;;;;8.27;99.21;99558.16;4990088;28;20030;-47
2022/09/28 07:30:27;;;;;;;10.30;9.27;;;;;;;8.32;98.93;99563.94;4989970;28;20381;-46
2022/09/28 07:32:53;;;;;;;10.25;9.25;;;;;;;8.37;99.28;99562.63;4990174;28;20086;-47
2022/09/28 07:35:19;;;;;;;12.13;9.43;;;;;;;8.39;99.34;99558.13;4989431;28;20030;-46
2022/09/28 07:37:44;;;;;;;10.45;8.77;;;;;;;8.45;99.09;99562.09;4989872;28;20042;-47
2022/09/28 07:43:03;;;;;;;12.75;9.38;;;;;;;8.60;97.98;99570.72;4989355;28;20103;-48
2022/09/28 07:45:28;;;;;;;11.25;8.38;;;;;;;8.62;98.78;99559.03;4989925;28;20087;-46
2022/09/28 07:47:54;;;;;;;10.98;9.02;;;;;;;8.66;98.97;99559.63;5004853;28;20404;-49
2022/09/28 07:50:20;;;;;;;11.68;8.90;;;;;;;8.80;99.22;99567.41;4989337;28;20018;-46
2022/09/28 07:52:46;;;;;;;10.48;8.13;;;;;;;8.87;97.82;99568.59;4972429;28;20550;-48
2022/09/28 07:55:11;;;;;;;12.18;9.68;;;;;;;8.96;98.10;99568.84;4989670;28;20026;-45
2022/09/28 07:57:42;;;;;;;11.82;8.93;;;;;;;9.04;98.54;99575.25;4972242;28;20030;-45
2022/09/28 08:00:08;;;;;;;9.05;8.15;;;;;;;9.09;97.51;99570.47;4989753;28;20391;-47
2022/09/28 08:02:36;;;;;;;14.98;8.15;;;;;;;9.14;97.85;99562.13;5004511;28;20034;-46
2022/09/28 08:05:01;;;;;;;9.95;7.68;;;;;;;9.23;95.37;99576.47;4989111;28;20034;-47
2022/09/28 08:07:27;;;;;;;10.95;8.32;;;;;;;9.32;95.81;99589.03;4955767;28;20518;-47
2022/09/28 08:09:52;;;;;;;9.35;7.93;;;;;;;9.44;95.28;99579.25;4971887;28;20168;-47
2022/09/28 08:12:20;;;;;;;10.20;7.68;;;;;;;9.51;94.23;99585.78;4971658;28;20039;-46
2022/09/28 08:14:46;;;;;;;9.75;8.43;;;;;;;9.59;94.19;99578.06;4989712;28;20381;-46
2022/09/28 08:17:11;;;;;;;10.63;7.70;;;;;;;9.81;94.00;99590.47;5004182;28;20030;-46
2022/09/28 08:22:21;;;;;;;11.57;8.10;;;;;;;10.12;93.00;99588.00;5002451;28;20056;-46
2022/09/28 08:24:47;;;;;;;14.30;7.53;;;;;;;10.23;90.88;99599.44;4989314;28;20031;-46
2022/09/28 08:27:15;;;;;;;8.68;7.03;;;;;;;10.39;91.02;99600.88;4989082;28;20030;-45
2022/09/28 08:29:41;;;;;;;14.68;7.32;;;;;;;10.52;91.81;99601.53;4989113;28;20358;-46
2022/09/28 08:32:08;;;;;;;7.57;6.88;;;;;;;10.58;91.11;99600.16;4972111;28;20056;-46
2022/09/28 08:34:38;;;;;;;9.32;6.95;;;;;;;10.62;90.04;99591.81;4988927;28;20023;-47
2022/09/28 08:37:05;;;;;;;10.38;6.82;;;;;;;10.64;88.50;99591.69;4989408;28;20034;-46
2022/09/28 08:39:31;;;;;;;11.82;7.60;;;;;;;10.82;89.23;99610.56;4988987;28;20031;-48
2022/09/28 08:42:38;;;;;;;6.75;6.15;;;;;;;11.00;90.33;99601.06;4988859;28;20397;-47
2022/09/28 08:45:16;;;;;;;10.93;6.88;;;;;;;11.09;89.86;99604.75;4989099;28;20034;-46
2022/09/28 08:50:28;;;;;;;7.35;6.47;;;;;;;11.27;88.73;99605.84;4988363;28;20049;-46
2022/09/28 08:53:02;;;;;;;8.02;6.35;;;;;;;11.31;87.69;99607.25;4989194;28;20532;-46
2022/09/28 08:55:32;;;;;;;7.47;6.55;;;;;;;11.48;86.92;99619.09;4972221;28;20022;-48
2022/09/28 08:58:12;;;;;;;9.88;6.07;;;;;;;11.57;85.99;99622.78;4988432;28;20101;-47
2022/09/28 09:00:46;;;;;;;9.98;6.22;;;;;;;11.67;85.95;99623.66;4987431;28;20062;-47
2022/09/28 09:03:18;;;;;;;8.98;6.38;;;;;;;11.72;85.96;99621.44;4974437;28;20435;-48
2022/09/28 09:06:02;;;;;;;11.68;5.65;;;;;;;11.87;82.98;99631.78;4998555;28;20107;-47
2022/09/28 09:09:06;;;;;;;6.97;5.38;;;;;;;11.95;83.92;99618.63;4991612;28;20523;-47
2022/09/28 09:11:50;;;;;;;7.75;5.75;;;;;;;12.05;nan;99622.97;4972703;28;20362;-47
2022/09/28 09:14:18;;;;;;;7.93;5.03;;;;;;;12.21;81.70;99627.78;4983689;28;20058;-47
2022/09/28 09:17:00;;;;;;;10.65;5.82;;;;;;;12.42;82.46;99637.50;4996760;28;20025;-47
2022/09/28 09:19:52;;;;;;;7.10;4.90;;;;;;;12.40;80.51;99639.47;5011094;28;20370;-46
2022/09/28 09:22:29;;;;;;;7.20;5.63;;;;;;;12.43;79.45;99641.84;4977549;28;20041;-48
2022/09/28 09:25:14;;;;;;;7.25;5.30;;;;;;;12.63;80.80;99648.06;4991281;28;20041;-47
2022/09/28 09:28:13;;;;;;;8.63;5.03;;;;;;;12.84;79.86;99647.91;4986385;28;20037;-46
2022/09/28 09:30:56;;;;;;;6.32;5.28;;;;;;;12.84;80.40;99640.75;5009015;28;20042;-51
2022/09/28 09:33:54;;;;;;;10.27;5.30;;;;;;;12.92;80.75;99642.72;4991507;28;20576;-47
2022/09/28 09:36:48;;;;;;;7.45;4.80;;;;;;;12.99;78.76;99645.66;4972862;28;20100;-46
2022/09/28 09:39:25;;;;;;;9.65;5.15;;;;;;;13.11;77.60;99645.34;4966690;28;20039;-48
2022/09/28 09:41:50;;;;;;;11.55;4.85;;;;;;;13.33;78.81;99646.06;4972442;28;20030;-46
2022/09/28 09:44:44;;;;;;;7.25;4.18;;;;;;;13.25;77.25;99657.47;4986724;28;20034;-46
2022/09/28 09:47:24;;;;;;;7.38;4.32;;;;;;;13.05;77.23;99653.94;4974843;28;20087;-47
2022/09/28 09:50:24;;;;;;;6.13;3.67;;;;;;;13.01;77.11;99657.88;4991040;28;20026;-46
2022/09/28 09:52:56;;;;;;;5.68;4.20;;;;;;;12.80;78.42;99662.53;4973571;28;20022;-47
2022/09/28 09:55:40;;;;;;;8.50;5.05;;;;;;;12.65;77.02;99657.63;5009076;28;20037;-47
2022/09/28 09:58:17;;;;;;;6.57;4.40;;;;;;;12.54;77.85;99652.41;4993586;28;20108;-47
2022/09/28 10:00:48;;;;;;;5.25;3.83;;;;;;;12.55;78.29;99651.41;5010852;28;20022;-47
2022/09/28 10:03:32;;;;;;;6.43;4.22;;;;;;;12.51;78.39;99652.69;5003635;28;20031;-47
2022/09/28 10:06:12;;;;;;;4.97;3.78;;;;;;;12.51;78.71;99647.34;4990660;28;20071;-46
2022/09/28 10:08:44;;;;;;;6.53;4.13;;;;;;;12.59;79.50;99644.84;4991033;28;20046;-46
2022/09/28 10:11:26;;;;;;;7.63;4.57;;;;;;;12.61;79.42;99650.84;4991297;28;20030;-46
2022/09/28 10:13:52;;;;;;;7.95;4.32;;;;;;;12.42;80.22;99653.50;4992039;28;20040;-49
2022/09/28 10:16:18;;;;;;;7.47;4.40;;;;;;;12.57;80.61;99648.63;4991099;28;20026;-47
2022/09/28 10:18:48;;;;;;;8.85;4.22;;;;;;;12.59;78.97;99666.19;4990771;28;20056;-47
2022/09/28 10:21:14;;;;;;;;;;;;;;;12.73;80.27;99654.22;4974252;28;20027;-46
2022/09/28 10:23:41;;;;;;;7.57;4.35;;;;;;;12.67;78.83;99657.44;5002466;28;19988;-51
2022/09/28 10:26:21;;;;;;;5.18;3.38;;;;;;;12.80;78.45;99657.19;5010750;28;20033;-47
2022/09/28 10:28:52;;;;;;;6.03;3.80;;;;;;;12.84;77.81;99646.09;5010651;28;20481;-47
2022/09/28 10:31:38;;;;;;;5.35;3.40;;;;;;;13.04;77.32;99651.41;5010342;28;20045;-46
2022/09/28 10:34:07;;;;;;;5.90;3.80;;;;;;;13.03;76.64;99655.94;5008476;28;20297;-47
2022/09/28 10:37:11;;;;;;;7.43;3.35;;;;;;;13.26;76.31;99661.81;5009777;28;20075;-47
2022/09/28 10:39:40;;;;;;;5.40;3.97;;;;;;;13.24;75.78;99657.59;5006597;28;20038;-47
2022/09/28 10:42:08;;;;;;;8.68;3.95;;;;;;;13.44;76.41;99645.88;5009321;28;20018;-47
2022/09/28 10:44:49;;;;;;;7.95;4.03;;;;;;;13.81;74.19;99639.72;4990762;28;20026;-48
2022/09/28 10:47:17;;;;;;;8.40;4.05;;;;;;;13.89;75.21;99644.34;4990691;28;20026;-46
2022/09/28 10:49:47;;;;;;;5.95;4.00;;;;;;;14.17;74.71;99647.84;4990084;28;20057;-46
2022/09/28 10:52:31;;;;;;;3.55;3.08;;;;;;;14.48;73.13;99653.72;4990351;28;20075;-47
2022/09/28 10:54:57;;;;;;;4.43;3.33;;;;;;;14.89;69.57;99654.97;4990332;28;20034;-46
2022/09/28 10:57:34;;;;;;;8.82;2.88;;;;;;;15.54;68.31;99643.88;4990300;28;20030;-47
2022/09/28 11:00:00;;;;;;;5.65;3.08;;;;;;;16.03;65.03;99649.53;4972834;28;20030;-48
2022/09/28 11:02:33;;;;;;;6.90;2.60;;;;;;;16.64;64.02;99647.50;4995905;28;20426;-46
2022/09/28 11:05:02;;;;;;;6.85;3.08;;;;;;;17.23;59.32;99650.09;4992027;28;20046;-47
2022/09/28 11:07:42;;;;;;;6.88;2.72;;;;;;;17.62;60.69;99634.06;4972651;28;20088;-49
2022/09/28 11:10:21;;;;;;;3.53;2.42;;;;;;;18.49;60.08;99657.44;4990429;28;20034;-50
2022/09/28 11:12:49;;;;;;;2.67;2.20;;;;;;;19.05;53.84;99658.91;4991482;28;20042;-51
2022/09/28 11:15:21;;;;;;;2.15;1.70;;;;;;;19.48;52.93;99658.38;4990043;28;20049;-49
2022/09/28 11:17:47;;;;;;;4.05;1.70;;;;;;;20.00;52.90;99652.13;4971918;28;20366;-48
2022/09/28 11:20:24;;;;;;;2.88;1.40;;;;;;;19.91;52.27;99650.50;4955100;28;20036;-49
2022/09/28 11:22:54;;;;;;;3.53;1.58;;;;;;;18.92;51.06;99657.88;4983155;28;20037;-48
2022/09/28 11:25:23;;;;;;;5.00;1.77;;;;;;;17.74;52.88;99653.38;4987646;28;20113;-47
2022/09/28 11:27:49;;;;;;;;;;;;;;;17.96;58.89;99645.59;4990658;28;20026;-47
2022/09/28 11:30:22;;;;;;;3.38;1.90;;;;;;;17.09;59.02;99656.13;4989795;28;20284;-47
2022/09/28 11:32:49;;;;;;;2.85;1.85;;;;;;;16.63;58.39;99648.53;4972505;28;20030;-48
2022/09/28 11:35:28;;;;;;;5.50;2.33;;;;;;;16.42;60.78;99649.00;5001772;28;20090;-48
2022/09/28 11:37:57;;;;;;;;;;;;;;;16.45;61.64;99645.97;5010279;28;20030;-47
2022/09/28 11:40:40;;;;;;;6.57;2.60;;;;;;;15.65;61.15;99651.66;4993558;28;19914;-49
2022/09/28 11:43:19;;;;;;;4.65;2.50;;;;;;;15.39;63.66;99649.00;4990003;28;20033;-51
2022/09/28 11:46:00;;;;;;;5.93;2.50;;;;;;;16.31;62.72;99646.59;4990650;28;20030;-48
2022/09/28 11:48:41;;;;;;;3.58;2.38;;;;;;;17.96;57.97;99630.28;4997037;28;20395;-49
2022/09/28 11:51:20;;;;;;;4.20;2.20;;;;;;;19.33;54.18;99652.97;4972312;28;20091;-48
2022/09/28 11:54:18;;;;;;;7.32;2.65;;;;;;;19.45;53.46;99648.78;4989599;28;20512;-52
2022/09/28 11:56:47;;;;;;;4.22;2.00;;;;;;;18.10;54.20;99650.25;4996545;28;20046;-49
2022/09/28 11:59:17;;;;;;;3.58;2.15;;;;;;;17.19;56.69;99648.75;4997699;28;20155;-47
2022/09/28 12:01:46;;;;;;;;;;;;;;;17.14;59.25;99645.72;5009648;28;20357;-46